createdAt,value
2018-12-30T00:00:43.945Z,18.83
2018-12-30T00:03:12.619Z,18.73
2018-12-30T00:05:42.010Z,16.40
2018-12-30T00:08:10.670Z,22.40
2018-12-30T00:10:40.062Z,22.27
2018-12-30T00:13:09.107Z,20.63
2018-12-30T00:15:38.132Z,19.33
2018-12-30T00:18:07.183Z,19.53
2018-12-30T00:20:36.574Z,19.27
2018-12-30T00:23:05.612Z,17.67
2018-12-30T00:25:35.134Z,19.33
2018-12-30T00:28:03.901Z,20.83
2018-12-30T00:30:32.730Z,19.07
2018-12-30T00:33:01.356Z,18.40
2018-12-30T00:35:30.367Z,19.67
2018-12-30T00:37:59.069Z,18.03
2018-12-30T00:40:27.862Z,15.10
2018-12-30T00:42:56.479Z,16.80
2018-12-30T00:45:25.122Z,14.83
2018-12-30T00:47:54.047Z,18.10
2018-12-30T00:50:22.804Z,18.57
2018-12-30T00:52:52.030Z,19.00
2018-12-30T00:55:20.935Z,17.47
2018-12-30T00:57:49.704Z,16.93
2018-12-30T01:00:18.703Z,18.57
2018-12-30T01:02:47.628Z,17.00
2018-12-30T01:05:16.758Z,16.50
2018-12-30T01:07:45.787Z,17.73
2018-12-30T01:10:14.519Z,17.30
2018-12-30T01:12:43.644Z,16.43
2018-12-30T01:15:12.415Z,18.67
2018-12-30T01:17:41.146Z,19.43
2018-12-30T01:20:10.158Z,14.93
2018-12-30T01:22:38.796Z,21.17
2018-12-30T01:25:08.010Z,19.70
2018-12-30T01:27:37.043Z,21.50
2018-12-30T01:30:06.255Z,19.40
2018-12-30T01:32:34.930Z,19.90
2018-12-30T01:35:03.770Z,19.13
2018-12-30T01:37:32.678Z,16.80
2018-12-30T01:40:01.416Z,21.83
2018-12-30T01:42:30.200Z,17.67
2018-12-30T01:44:58.904Z,18.27
2018-12-30T01:47:28.503Z,17.83
2018-12-30T01:49:57.427Z,19.10
2018-12-30T01:52:26.191Z,18.43
2018-12-30T01:54:55.029Z,19.70
2018-12-30T01:57:23.927Z,19.90
2018-12-30T01:59:53.641Z,19.90
2018-12-30T02:02:22.672Z,17.80
2018-12-30T02:04:51.706Z,17.90
2018-12-30T02:07:20.538Z,18.53
2018-12-30T02:09:49.204Z,18.33
2018-12-30T02:12:17.852Z,22.43
2018-12-30T02:14:46.722Z,19.87
2018-12-30T02:17:15.499Z,17.33
2018-12-30T02:19:44.135Z,16.07
2018-12-30T02:22:13.145Z,15.70
2018-12-30T02:24:41.824Z,18.70
2018-12-30T02:27:11.194Z,18.33
2018-12-30T02:29:39.862Z,17.87
2018-12-30T02:32:09.057Z,20.33
2018-12-30T02:34:37.725Z,16.77
2018-12-30T02:37:06.732Z,20.13
2018-12-30T02:39:35.395Z,17.00
2018-12-30T02:42:04.403Z,16.43
2018-12-30T02:44:33.431Z,19.00
2018-12-30T02:47:02.846Z,18.13
2018-12-30T02:49:32.072Z,19.35
2018-12-30T02:52:01.120Z,18.32
2018-12-30T02:54:30.145Z,22.15
2018-12-30T02:56:58.896Z,21.10
2018-12-30T02:59:27.631Z,20.23
2018-12-30T03:01:57.220Z,17.60
2018-12-30T03:04:25.885Z,19.73
2018-12-30T03:06:54.895Z,20.80
2018-12-30T03:09:23.555Z,18.98
2018-12-30T03:11:52.558Z,18.50
2018-12-30T03:14:21.825Z,22.20
2018-12-30T03:16:50.649Z,21.10
2018-12-30T03:19:19.847Z,20.60
2018-12-30T03:21:49.071Z,16.50
2018-12-30T03:24:18.208Z,20.10
2018-12-30T03:26:47.232Z,22.50
2018-12-30T03:29:15.983Z,21.87
2018-12-30T03:31:45.199Z,20.37
2018-12-30T03:34:14.222Z,22.45
2018-12-30T03:36:43.257Z,19.65
2018-12-30T03:39:11.906Z,22.98
2018-12-30T03:41:40.567Z,21.95
2018-12-30T03:44:09.393Z,21.48
2018-12-30T03:46:38.219Z,20.17
2018-12-30T03:49:07.051Z,20.37
2018-12-30T03:51:35.951Z,20.08
2018-12-30T03:54:05.083Z,19.00
2018-12-30T03:56:33.940Z,20.65
2018-12-30T03:59:03.332Z,20.00
2018-12-30T04:01:32.373Z,21.62
2018-12-30T04:04:01.227Z,22.30
2018-12-30T04:06:29.851Z,20.60
2018-12-30T04:08:59.067Z,17.42
2018-12-30T04:11:28.285Z,23.85
2018-12-30T04:13:57.324Z,24.95
2018-12-30T04:16:26.182Z,25.52
2018-12-30T04:18:55.014Z,21.62
2018-12-30T04:21:23.639Z,21.30
2018-12-30T04:23:52.347Z,18.70
2018-12-30T04:26:21.114Z,23.47
2018-12-30T04:28:50.128Z,23.23
2018-12-30T04:31:18.779Z,18.80
2018-12-30T04:33:47.793Z,20.30
2018-12-30T04:36:16.819Z,19.97
2018-12-30T04:38:45.484Z,20.30
2018-12-30T04:41:14.123Z,20.93
2018-12-30T04:43:43.138Z,19.73
2018-12-30T04:46:12.152Z,19.02
2018-12-30T04:48:40.816Z,19.05
2018-12-30T04:51:09.652Z,22.02
2018-12-30T04:53:38.842Z,27.07
2018-12-30T04:56:07.562Z,20.62
2018-12-30T04:58:36.904Z,19.60
2018-12-30T05:01:05.941Z,21.00
2018-12-30T05:03:34.973Z,20.12
2018-12-30T05:06:04.189Z,20.70
2018-12-30T05:08:33.230Z,22.13
2018-12-30T05:11:02.265Z,18.62
2018-12-30T05:13:30.902Z,19.77
2018-12-30T05:15:59.563Z,18.40
2018-12-30T05:18:28.390Z,22.82
2018-12-30T05:20:57.023Z,23.98
2018-12-30T05:23:26.217Z,17.77
2018-12-30T05:25:55.155Z,19.60
2018-12-30T05:28:23.982Z,22.50
2018-12-30T05:30:52.743Z,21.05
2018-12-30T05:33:21.663Z,21.70
2018-12-30T05:35:51.292Z,18.77
2018-12-30T05:38:20.034Z,20.35
2018-12-30T05:40:49.234Z,21.90
2018-12-30T05:43:17.901Z,19.83
2018-12-30T05:45:46.739Z,18.70
2018-12-30T05:48:15.835Z,18.30
2018-12-30T05:50:44.593Z,19.60
2018-12-30T05:53:13.230Z,20.30
2018-12-30T05:55:41.858Z,21.40
2018-12-30T05:58:10.688Z,21.17
2018-12-30T06:00:39.690Z,20.08
2018-12-30T06:03:08.367Z,18.05
2018-12-30T06:05:37.278Z,19.02
2018-12-30T06:08:06.027Z,19.02
2018-12-30T06:10:34.654Z,18.62
2018-12-30T06:13:03.310Z,23.77
2018-12-30T06:15:32.210Z,17.50
2018-12-30T06:18:00.970Z,22.37
2018-12-30T06:20:30.079Z,20.53
2018-12-30T06:22:58.834Z,18.57
2018-12-30T06:25:27.650Z,17.90
2018-12-30T06:27:56.869Z,19.67
2018-12-30T06:30:25.519Z,17.20
2018-12-30T06:32:54.726Z,17.20
2018-12-30T06:35:23.402Z,16.50
2018-12-30T06:37:52.587Z,15.97
2018-12-30T06:40:21.268Z,22.23
2018-12-30T06:42:50.079Z,16.60
2018-12-30T06:45:18.719Z,19.07
2018-12-30T06:47:47.730Z,17.53
2018-12-30T06:50:16.764Z,19.90
2018-12-30T06:52:45.982Z,15.67
2018-12-30T06:55:15.019Z,17.27
2018-12-30T06:57:43.950Z,16.50
2018-12-30T07:00:13.076Z,17.87
2018-12-30T07:02:41.738Z,15.00
2018-12-30T07:05:10.619Z,15.23
2018-12-30T07:07:39.397Z,17.10
2018-12-30T07:10:08.040Z,16.80
2018-12-30T07:12:36.673Z,17.17
2018-12-30T07:15:05.554Z,15.43
2018-12-30T07:17:34.343Z,17.07
2018-12-30T07:20:03.354Z,15.87
2018-12-30T07:22:32.484Z,15.27
2018-12-30T07:25:01.692Z,14.70
2018-12-30T07:27:30.930Z,13.90
2018-12-30T07:30:00.249Z,15.83
2018-12-30T07:32:28.911Z,16.83
2018-12-30T07:34:57.530Z,14.60
2018-12-30T07:37:26.412Z,15.80
2018-12-30T07:39:55.491Z,17.53
2018-12-30T07:42:24.716Z,14.90
2018-12-30T07:44:53.462Z,16.20
2018-12-30T07:47:22.100Z,17.37
2018-12-30T07:49:50.424Z,15.27
2018-12-30T07:52:19.751Z,17.57
2018-12-30T07:54:48.787Z,14.80
2018-12-30T07:57:17.815Z,15.07
2018-12-30T07:59:46.454Z,16.23
2018-12-30T08:02:15.295Z,18.70
2018-12-30T08:04:44.214Z,15.47
2018-12-30T08:07:12.968Z,12.83
2018-12-30T08:09:41.978Z,17.47
2018-12-30T08:12:10.618Z,16.60
2018-12-30T08:14:39.844Z,16.50
2018-12-30T08:17:09.063Z,17.80
2018-12-30T08:19:37.719Z,16.43
2018-12-30T08:22:06.736Z,15.17
2018-12-30T08:24:35.577Z,16.07
2018-12-30T08:27:04.599Z,16.47
2018-12-30T08:29:33.264Z,15.70
2018-12-30T08:32:02.170Z,14.10
2018-12-30T08:34:30.916Z,19.80
2018-12-30T08:36:59.547Z,16.43
2018-12-30T08:39:28.382Z,16.00
2018-12-30T08:41:57.075Z,14.67
2018-12-30T08:44:25.899Z,18.43
2018-12-30T08:46:56.309Z,20.50
2018-12-30T08:49:25.123Z,17.43
2018-12-30T08:51:53.931Z,16.83
2018-12-30T08:54:22.759Z,17.00
2018-12-30T08:56:51.967Z,15.03
2018-12-30T08:59:21.193Z,20.30
2018-12-30T09:01:50.130Z,17.57
2018-12-30T09:04:19.258Z,16.80
2018-12-30T09:06:48.292Z,16.03
2018-12-30T09:09:16.937Z,18.17
2018-12-30T09:11:45.583Z,17.83
2018-12-30T09:14:14.596Z,17.87
2018-12-30T09:16:43.725Z,14.50
2018-12-30T09:19:12.481Z,16.87
2018-12-30T09:21:41.387Z,14.47
2018-12-30T09:24:10.131Z,13.97
2018-12-30T09:26:38.970Z,13.30
2018-12-30T09:29:07.984Z,11.33
2018-12-30T09:31:36.641Z,15.37
2018-12-30T09:34:05.652Z,17.20
2018-12-30T09:36:34.586Z,11.20
2018-12-30T09:39:04.353Z,10.47
2018-12-30T09:41:33.527Z,11.23
2018-12-30T09:44:02.755Z,11.70
2018-12-30T09:46:31.546Z,8.60
2018-12-30T09:49:00.624Z,12.30
2018-12-30T09:51:29.836Z,13.67
2018-12-30T09:53:58.507Z,12.10
2018-12-30T09:56:27.414Z,12.57
2018-12-30T09:58:56.540Z,10.00
2018-12-30T10:01:25.179Z,9.47
2018-12-30T10:03:54.002Z,10.27
2018-12-30T10:06:22.671Z,11.90
2018-12-30T10:08:51.495Z,9.40
2018-12-30T10:11:20.133Z,15.27
2018-12-30T10:13:49.144Z,8.47
2018-12-30T10:16:17.809Z,9.10
2018-12-30T10:18:46.521Z,12.07
2018-12-30T10:21:15.255Z,9.13
2018-12-30T10:23:44.670Z,7.77
2018-12-30T10:26:13.509Z,6.97
2018-12-30T10:28:42.365Z,7.90
2018-12-30T10:31:11.270Z,8.97
2018-12-30T10:33:40.408Z,7.97
2018-12-30T10:36:09.240Z,7.70
2018-12-30T10:38:38.163Z,7.50
2018-12-30T10:41:07.304Z,9.40
2018-12-30T10:43:36.323Z,8.63
2018-12-30T10:46:05.456Z,10.43
2018-12-30T10:48:34.212Z,9.60
2018-12-30T10:51:03.409Z,10.53
2018-12-30T10:53:32.444Z,6.83
2018-12-30T10:56:01.577Z,7.90
2018-12-30T10:58:30.603Z,9.93
2018-12-30T11:00:59.346Z,8.97
2018-12-30T11:03:27.988Z,8.53
2018-12-30T11:05:57.005Z,10.77
2018-12-30T11:08:25.664Z,10.17
2018-12-30T11:10:54.279Z,9.10
2018-12-30T11:13:22.924Z,11.87
2018-12-30T11:15:51.572Z,10.53
2018-12-30T11:18:20.971Z,7.93
2018-12-30T11:20:49.994Z,8.77
2018-12-30T11:23:18.730Z,11.27
2018-12-30T11:25:47.868Z,11.63
2018-12-30T11:28:16.509Z,9.67
2018-12-30T11:30:45.627Z,8.27
2018-12-30T11:33:14.379Z,9.80
2018-12-30T11:35:43.297Z,12.07
2018-12-30T11:38:12.613Z,12.37
2018-12-30T11:40:41.267Z,11.20
2018-12-30T11:43:10.281Z,9.67
2018-12-30T11:45:39.314Z,10.30
2018-12-30T11:48:08.343Z,10.10
2018-12-30T11:50:37.567Z,12.23
2018-12-30T11:53:06.228Z,12.20
2018-12-30T11:55:35.430Z,11.27
2018-12-30T11:58:04.366Z,10.70
2018-12-30T12:00:33.497Z,9.63
2018-12-30T12:03:02.714Z,8.43
2018-12-30T12:05:31.947Z,9.50
2018-12-30T12:08:00.590Z,7.00
2018-12-30T12:10:29.519Z,8.20
2018-12-30T12:12:58.258Z,7.63
2018-12-30T12:15:27.179Z,8.30
2018-12-30T12:17:56.207Z,6.47
2018-12-30T12:20:24.954Z,6.17
2018-12-30T12:22:53.591Z,6.47
2018-12-30T12:25:22.516Z,8.37
2018-12-30T12:27:51.327Z,5.73
2018-12-30T12:30:20.474Z,5.93
2018-12-30T12:32:49.408Z,7.10
2018-12-30T12:35:18.159Z,6.30
2018-12-30T12:37:47.165Z,5.73
2018-12-30T12:40:16.209Z,6.23
2018-12-30T12:42:44.867Z,8.07
2018-12-30T12:45:13.967Z,6.00
2018-12-30T12:47:42.730Z,9.03
2018-12-30T12:50:11.355Z,8.00
2018-12-30T12:52:39.983Z,8.87
2018-12-30T12:55:08.631Z,6.10
2018-12-30T12:57:37.550Z,7.37
2018-12-30T13:00:07.783Z,6.83
2018-12-30T13:02:36.885Z,6.73
2018-12-30T13:05:05.812Z,4.80
2018-12-30T13:07:34.552Z,6.23
2018-12-30T13:10:03.382Z,5.73
2018-12-30T13:12:32.027Z,6.43
2018-12-30T13:15:00.945Z,6.07
2018-12-30T13:17:30.074Z,7.03
2018-12-30T13:19:58.393Z,6.93
2018-12-30T13:22:27.446Z,6.87
2018-12-30T13:24:56.187Z,7.93
2018-12-30T13:27:25.211Z,6.50
2018-12-30T13:29:53.531Z,5.50
2018-12-30T13:32:22.682Z,6.23
2018-12-30T13:34:51.343Z,7.53
2018-12-30T13:37:20.350Z,6.73
2018-12-30T13:39:49.009Z,5.97
2018-12-30T13:42:17.835Z,5.30
2018-12-30T13:44:46.664Z,5.17
2018-12-30T13:47:15.313Z,5.57
2018-12-30T13:49:44.314Z,7.63
2018-12-30T13:52:12.975Z,5.27
2018-12-30T13:54:47.728Z,8.47
2018-12-30T13:57:12.422Z,7.57
2018-12-30T13:59:41.027Z,8.03
2018-12-30T14:02:09.958Z,7.37
2018-12-30T14:04:38.867Z,8.10
2018-12-30T14:07:07.547Z,9.23
2018-12-30T14:09:36.756Z,6.50
2018-12-30T14:12:05.420Z,6.97
2018-12-30T14:14:34.322Z,7.80
2018-12-30T14:17:03.070Z,7.13
2018-12-30T14:19:31.701Z,7.13
2018-12-30T14:22:00.342Z,5.50
2018-12-30T14:24:29.368Z,8.00
2018-12-30T14:26:59.993Z,9.17
2018-12-30T14:29:29.378Z,8.53
2018-12-30T14:31:58.412Z,7.63
2018-12-30T14:34:27.059Z,10.00
2018-12-30T14:36:56.370Z,7.97
2018-12-30T14:39:25.694Z,7.97
2018-12-30T14:41:54.920Z,9.80
2018-12-30T14:44:23.955Z,7.27
2018-12-30T14:46:52.891Z,9.57
2018-12-30T14:49:21.636Z,8.13
2018-12-30T14:51:50.652Z,10.80
2018-12-30T14:54:19.871Z,8.83
2018-12-30T14:56:48.532Z,7.47
2018-12-30T14:59:17.346Z,11.63
2018-12-30T15:01:46.282Z,7.50
2018-12-30T15:04:15.019Z,8.73
2018-12-30T15:06:43.668Z,10.83
2018-12-30T15:09:12.691Z,9.97
2018-12-30T15:11:41.542Z,11.77
2018-12-30T15:14:10.547Z,9.63
2018-12-30T15:16:39.574Z,10.87
2018-12-30T15:19:08.504Z,8.77
2018-12-30T15:21:37.264Z,9.17
2018-12-30T15:24:05.912Z,9.63
2018-12-30T15:26:35.294Z,10.20
2018-12-30T15:29:04.526Z,10.10
2018-12-30T15:31:33.183Z,18.57
2018-12-30T15:34:01.812Z,10.80
2018-12-30T15:36:30.730Z,10.40
2018-12-30T15:38:59.865Z,11.33
2018-12-30T15:41:29.079Z,9.27
2018-12-30T15:43:58.309Z,11.07
2018-12-30T15:46:27.246Z,10.60
2018-12-30T15:48:56.002Z,10.23
2018-12-30T15:51:25.009Z,10.30
2018-12-30T15:53:53.683Z,12.13
2018-12-30T15:56:22.870Z,8.93
2018-12-30T15:58:51.524Z,11.00
2018-12-30T16:01:20.538Z,8.17
2018-12-30T16:03:49.562Z,10.13
2018-12-30T16:06:18.577Z,8.73
2018-12-30T16:08:47.816Z,9.33
2018-12-30T16:11:16.467Z,7.30
2018-12-30T16:13:45.495Z,9.13
2018-12-30T16:16:14.522Z,11.03
2018-12-30T16:18:43.548Z,8.80
2018-12-30T16:21:12.769Z,7.90
2018-12-30T16:23:41.808Z,8.60
2018-12-30T16:26:10.838Z,9.50
2018-12-30T16:28:39.865Z,8.33
2018-12-30T16:31:08.523Z,8.07
2018-12-30T16:33:37.728Z,7.00
2018-12-30T16:36:06.948Z,13.53
2018-12-30T16:38:35.591Z,8.63
2018-12-30T16:41:04.618Z,11.03
2018-12-30T16:43:34.692Z,8.70
2018-12-30T16:46:03.795Z,8.70
2018-12-30T16:48:32.794Z,7.43
2018-12-30T16:51:01.543Z,9.00
2018-12-30T16:53:30.745Z,10.03
2018-12-30T16:55:59.972Z,8.03
2018-12-30T16:58:28.914Z,8.07
2018-12-30T17:00:58.038Z,8.47
2018-12-30T17:03:26.685Z,7.63
2018-12-30T17:05:55.331Z,10.90
2018-12-30T17:08:23.955Z,6.70
2018-12-30T17:10:52.980Z,8.23
2018-12-30T17:13:21.627Z,8.73
2018-12-30T17:15:50.276Z,10.03
2018-12-30T17:18:18.967Z,10.37
2018-12-30T17:20:47.913Z,11.13
2018-12-30T17:23:16.579Z,9.87
2018-12-30T17:25:45.586Z,8.83
2018-12-30T17:28:14.287Z,11.53
2018-12-30T17:30:43.068Z,9.17
2018-12-30T17:33:12.081Z,8.40
2018-12-30T17:35:41.111Z,8.90
2018-12-30T17:38:09.769Z,8.60
2018-12-30T17:40:38.951Z,11.27
2018-12-30T17:43:07.631Z,8.83
2018-12-30T17:45:36.271Z,11.63
2018-12-30T17:48:05.470Z,11.63
2018-12-30T17:50:34.514Z,8.87
2018-12-30T17:53:03.539Z,10.70
2018-12-30T17:55:32.565Z,9.53
2018-12-30T17:58:01.224Z,9.40
2018-12-30T18:00:30.236Z,11.37
2018-12-30T18:02:58.885Z,11.07
2018-12-30T18:05:28.089Z,13.53
2018-12-30T18:07:56.746Z,10.43
2018-12-30T18:10:25.575Z,10.23
2018-12-30T18:12:54.219Z,10.60
2018-12-30T18:15:23.420Z,10.63
2018-12-30T18:17:52.082Z,10.77
2018-12-30T18:20:21.098Z,11.00
2018-12-30T18:22:50.461Z,9.67
2018-12-30T18:25:19.551Z,8.50
2018-12-30T18:27:48.575Z,12.73
2018-12-30T18:30:17.222Z,8.97
2018-12-30T18:32:46.434Z,9.23
2018-12-30T18:35:15.106Z,9.47
2018-12-30T18:37:43.944Z,9.03
2018-12-30T18:40:12.947Z,11.43
2018-12-30T18:42:41.971Z,11.07
2018-12-30T18:45:10.907Z,10.70
2018-12-30T18:47:39.654Z,10.10
2018-12-30T18:50:09.216Z,9.27
2018-12-30T18:52:38.290Z,9.93
2018-12-30T18:55:07.156Z,9.77
2018-12-30T18:57:35.977Z,13.00
2018-12-30T19:00:05.387Z,10.60
2018-12-30T19:02:34.596Z,9.13
2018-12-30T19:05:03.728Z,8.73
2018-12-30T19:07:32.857Z,11.07
2018-12-30T19:10:01.207Z,12.13
2018-12-30T19:12:29.959Z,9.77
2018-12-30T19:14:58.585Z,11.27
2018-12-30T19:17:27.235Z,10.10
2018-12-30T19:19:56.139Z,12.10
2018-12-30T19:22:25.275Z,10.40
2018-12-30T19:24:54.488Z,10.37
2018-12-30T19:27:23.280Z,12.77
2018-12-30T19:29:51.627Z,9.67
2018-12-30T19:32:20.429Z,9.83
2018-12-30T19:34:49.240Z,9.93
2018-12-30T19:37:18.262Z,12.43
2018-12-30T19:39:47.300Z,13.07
2018-12-30T19:42:16.127Z,15.00
2018-12-30T19:44:45.160Z,10.50
2018-12-30T19:47:14.286Z,13.47
2018-12-30T19:49:43.043Z,13.70
2018-12-30T19:52:11.671Z,11.83
2018-12-30T19:54:40.486Z,15.00
2018-12-30T19:57:09.422Z,13.53
2018-12-30T19:59:38.516Z,16.27
2018-12-30T20:02:07.772Z,15.97
2018-12-30T20:04:40.621Z,22.03
2018-12-30T20:07:07.612Z,14.67
2018-12-30T20:09:36.635Z,13.00
2018-12-30T20:12:05.857Z,15.33
2018-12-30T20:14:34.729Z,16.63
2018-12-30T20:17:03.877Z,17.03
2018-12-30T20:19:32.586Z,13.33
2018-12-30T20:22:01.589Z,14.63
2018-12-30T20:24:30.277Z,13.47
2018-12-30T20:26:59.543Z,17.23
2018-12-30T20:29:28.521Z,13.70
2018-12-30T20:31:57.424Z,13.70
2018-12-30T20:34:26.852Z,15.37
2018-12-30T20:36:56.066Z,16.03
2018-12-30T20:39:25.190Z,13.93
2018-12-30T20:41:54.319Z,13.37
2018-12-30T20:44:23.447Z,16.93
2018-12-30T20:46:52.095Z,16.73
2018-12-30T20:49:21.116Z,16.43
2018-12-30T20:51:49.767Z,15.53
2018-12-30T20:54:18.881Z,18.17
2018-12-30T20:56:48.207Z,15.27
2018-12-30T20:59:17.304Z,16.30
2018-12-30T21:01:46.099Z,16.70
2018-12-30T21:04:16.072Z,16.80
2018-12-30T21:06:44.735Z,16.53
2018-12-30T21:09:13.568Z,19.37
2018-12-30T21:11:42.199Z,17.23
2018-12-30T21:14:10.835Z,16.33
2018-12-30T21:16:39.858Z,15.83
2018-12-30T21:19:08.514Z,17.17
2018-12-30T21:21:37.385Z,15.23
2018-12-30T21:24:06.559Z,19.07
2018-12-30T21:26:35.579Z,16.83
2018-12-30T21:29:04.607Z,14.97
2018-12-30T21:31:33.551Z,19.83
2018-12-30T21:34:02.317Z,17.03
2018-12-30T21:36:31.200Z,16.23
2018-12-30T21:39:00.236Z,19.97
2018-12-30T21:41:28.988Z,19.37
2018-12-30T21:43:58.003Z,18.33
2018-12-30T21:46:26.668Z,13.83
2018-12-30T21:48:55.492Z,13.70
2018-12-30T21:51:24.697Z,17.37
2018-12-30T21:53:53.338Z,16.33
2018-12-30T21:56:21.984Z,13.90
2018-12-30T21:58:50.998Z,17.17
2018-12-30T22:01:19.656Z,15.60
2018-12-30T22:03:48.287Z,16.10
2018-12-30T22:06:16.914Z,14.77
2018-12-30T22:08:45.943Z,17.17
2018-12-30T22:11:14.600Z,14.80
2018-12-30T22:13:43.797Z,12.37
2018-12-30T22:16:12.838Z,14.80
2018-12-30T22:18:42.355Z,14.37
2018-12-30T22:21:11.104Z,15.53
2018-12-30T22:23:39.742Z,17.97
2018-12-30T22:26:08.396Z,16.83
2018-12-30T22:28:37.594Z,17.30
2018-12-30T22:31:06.805Z,16.13
2018-12-30T22:33:35.843Z,17.43
2018-12-30T22:36:04.875Z,18.20
2018-12-30T22:38:33.914Z,16.23
2018-12-30T22:41:02.731Z,15.43
2018-12-30T22:43:31.669Z,22.67
2018-12-30T22:46:00.432Z,19.07
2018-12-30T22:48:29.273Z,17.37
2018-12-30T22:50:58.103Z,22.40
2018-12-30T22:53:26.918Z,18.20
2018-12-30T22:55:56.121Z,19.87
2018-12-30T22:58:25.349Z,22.77
2018-12-30T23:01:12.916Z,19.13
2018-12-30T23:03:41.726Z,15.37
2018-12-30T23:06:10.637Z,19.10
2018-12-30T23:08:39.374Z,17.03
2018-12-30T23:11:08.401Z,16.23
2018-12-30T23:13:37.291Z,17.00
2018-12-30T23:16:06.096Z,18.47
2018-12-30T23:18:35.197Z,16.63
2018-12-30T23:21:03.948Z,16.20
2018-12-30T23:23:32.854Z,14.63
2018-12-30T23:26:01.616Z,14.47
2018-12-30T23:28:31.007Z,20.73
2018-12-30T23:31:00.234Z,18.37
2018-12-30T23:33:29.559Z,19.83
2018-12-30T23:35:58.327Z,15.83
2018-12-30T23:38:27.432Z,16.93
2018-12-30T23:40:56.748Z,18.40
2018-12-30T23:43:25.790Z,14.87
2018-12-30T23:45:54.499Z,20.20
2018-12-30T23:48:23.836Z,18.13
2018-12-30T23:50:52.619Z,18.63
2018-12-30T23:53:21.712Z,14.60
2018-12-30T23:55:50.744Z,15.33
2018-12-30T23:58:19.668Z,18.00
